createdAt,value
2023-05-10T00:01:38.941Z,98.0
2023-05-10T00:11:35.849Z,98.1
2023-05-10T00:21:35.328Z,98.3
2023-05-10T00:31:35.149Z,98.3
2023-05-10T00:41:35.477Z,98.4
2023-05-10T00:51:35.068Z,98.5
2023-05-10T01:01:35.049Z,98.7
2023-05-10T01:11:35.165Z,98.7
2023-05-10T01:21:35.357Z,98.9
2023-05-10T01:31:35.328Z,99.0
2023-05-10T01:41:35.153Z,98.9
2023-05-10T01:51:35.364Z,99.0
2023-05-10T02:01:34.981Z,99.0
2023-05-10T02:11:35.087Z,99.0
2023-05-10T02:21:35.651Z,99.1
2023-05-10T02:31:35.607Z,99.2
2023-05-10T02:41:35.484Z,99.2
2023-05-10T02:51:35.042Z,99.1
2023-05-10T03:01:35.148Z,99.3
2023-05-10T03:11:34.998Z,99.4
2023-05-10T03:21:34.989Z,99.4
2023-05-10T03:31:35.060Z,99.4
2023-05-10T03:41:35.021Z,99.5
2023-05-10T03:51:35.135Z,99.4
2023-05-10T04:01:35.032Z,99.4
2023-05-10T04:11:35.188Z,99.3
2023-05-10T04:21:35.252Z,99.2
2023-05-10T04:31:35.007Z,99.2
2023-05-10T04:41:35.036Z,99.0
2023-05-10T04:51:35.898Z,98.8
2023-05-10T05:01:35.094Z,98.8
2023-05-10T05:11:35.090Z,98.3
2023-05-10T05:21:35.188Z,97.7
2023-05-10T05:31:35.037Z,96.9
2023-05-10T05:41:35.539Z,96.5
2023-05-10T05:51:35.050Z,96.5
2023-05-10T06:01:35.528Z,96.6
2023-05-10T06:11:35.228Z,96.6
2023-05-10T06:21:35.167Z,96.5
2023-05-10T06:31:35.112Z,96.4
2023-05-10T06:41:35.187Z,96.5
2023-05-10T06:51:35.506Z,95.9
2023-05-10T07:01:35.051Z,95.9
2023-05-10T07:11:34.967Z,95.9
2023-05-10T07:21:35.282Z,96.3
2023-05-10T07:31:35.036Z,96.0
2023-05-10T07:41:36.005Z,96.5
2023-05-10T07:51:35.565Z,96.5
2023-05-10T08:01:35.200Z,96.1
2023-05-10T08:11:35.374Z,96.1
2023-05-10T08:21:35.021Z,95.9
2023-05-10T08:31:35.008Z,93.3
2023-05-10T08:41:35.138Z,93.0
2023-05-10T08:51:35.194Z,91.4
2023-05-10T09:01:35.005Z,90.0
2023-05-10T09:11:34.985Z,89.2
2023-05-10T09:21:35.051Z,87.1
2023-05-10T09:31:35.067Z,89.2
2023-05-10T09:41:34.975Z,87.5
2023-05-10T09:51:36.650Z,86.2
2023-05-10T10:01:35.635Z,87.0
2023-05-10T10:11:35.029Z,88.6
2023-05-10T10:21:35.150Z,87.6
2023-05-10T10:31:35.089Z,83.6
2023-05-10T10:41:35.000Z,84.9
2023-05-10T10:51:34.978Z,86.1
2023-05-10T11:01:35.031Z,86.7
2023-05-10T11:11:35.236Z,84.4
2023-05-10T11:21:35.042Z,87.1
2023-05-10T11:31:35.054Z,83.7
2023-05-10T11:41:35.043Z,84.4
2023-05-10T11:51:35.187Z,82.7
2023-05-10T12:01:35.022Z,79.5
2023-05-10T12:11:35.024Z,81.7
2023-05-10T12:21:34.989Z,80.8
2023-05-10T12:31:35.061Z,76.3
2023-05-10T12:41:35.091Z,77.7
2023-05-10T12:51:35.110Z,79.1
2023-05-10T13:01:35.617Z,74.9
2023-05-10T13:11:35.069Z,77.3
2023-05-10T13:21:35.655Z,76.6
2023-05-10T13:31:35.136Z,77.9
2023-05-10T13:41:35.551Z,78.3
2023-05-10T13:51:35.180Z,78.8
2023-05-10T14:01:35.093Z,79.4
2023-05-10T14:11:35.106Z,75.5
2023-05-10T14:21:35.387Z,76.8
2023-05-10T14:31:35.018Z,79.4
2023-05-10T14:41:35.095Z,74.8
2023-05-10T14:51:35.448Z,74.9
2023-05-10T15:01:35.254Z,73.0
2023-05-10T15:11:35.067Z,74.7
2023-05-10T15:21:35.292Z,75.0
2023-05-10T15:31:36.195Z,74.6
2023-05-10T15:41:36.569Z,71.8
2023-05-10T15:51:36.766Z,74.4
2023-05-10T16:01:35.971Z,77.8
2023-05-10T16:11:36.658Z,76.3
2023-05-10T16:21:35.167Z,78.1
2023-05-10T16:31:35.356Z,77.5
2023-05-10T16:41:35.156Z,75.0
2023-05-10T16:51:35.178Z,79.9
2023-05-10T17:01:35.588Z,85.8
2023-05-10T17:11:35.079Z,87.8
2023-05-10T17:21:35.144Z,87.6
2023-05-10T17:31:35.240Z,87.8
2023-05-10T17:41:35.124Z,86.1
2023-05-10T17:51:35.106Z,88.1
2023-05-10T18:01:35.113Z,88.0
2023-05-10T18:11:35.802Z,88.8
2023-05-10T18:21:35.120Z,87.9
2023-05-10T18:31:35.341Z,86.9
2023-05-10T18:41:35.294Z,88.1
2023-05-10T18:51:35.814Z,89.6
2023-05-10T19:01:35.159Z,91.6
2023-05-10T19:11:35.162Z,92.3
2023-05-10T19:21:35.060Z,92.3
2023-05-10T19:31:35.265Z,92.7
2023-05-10T19:41:35.087Z,94.1
2023-05-10T19:51:35.054Z,93.6
2023-05-10T20:01:35.511Z,94.1
2023-05-10T20:11:35.153Z,95.2
2023-05-10T20:21:35.489Z,95.0
2023-05-10T20:31:35.601Z,95.2
2023-05-10T20:41:35.279Z,95.9
2023-05-10T20:51:35.551Z,96.8
2023-05-10T21:01:35.351Z,96.8
2023-05-10T21:11:36.182Z,97.2
2023-05-10T21:21:35.342Z,97.3
2023-05-10T21:31:35.170Z,97.1
2023-05-10T21:41:35.931Z,97.3
2023-05-10T21:51:35.673Z,97.0
2023-05-10T22:01:35.372Z,97.2
2023-05-10T22:11:35.273Z,97.1
2023-05-10T22:21:35.464Z,97.5
2023-05-10T22:31:35.847Z,97.7
2023-05-10T22:41:35.450Z,97.8
2023-05-10T22:51:35.335Z,98.0
2023-05-10T23:01:36.653Z,98.3
2023-05-10T23:11:35.940Z,98.4
2023-05-10T23:21:35.736Z,98.4
2023-05-10T23:31:38.620Z,98.4
2023-05-10T23:41:36.720Z,98.4
2023-05-10T23:51:38.845Z,98.4
